Time;durP1;ratioP1;P1;durP2;ratioP2;P2;SDS_P1;SDS_P2;PMS_P1;PMS_P2;Temp;Humidity;BMP_temperature;BMP_pressure;BME280_temperature;BME280_humidity;BME280_pressure;Samples;Min_cycle;Max_cycle;Signal;HPM_P1;HPM_P2
2020/12/08 00:00:21;;;;;;;43.28;24.65;;;;;;;-3.01;74.93;96638.67;1819229;78;22216;-84
2020/12/08 00:02:50;;;;;;;39.48;22.00;;;;;;;-3.04;75.24;96637.05;1819367;78;21598;-85
2020/12/08 00:05:20;;;;;;;29.65;16.70;;;;;;;-2.95;75.27;96644.85;1819371;78;21563;-84
2020/12/08 00:07:49;;;;;;;34.65;19.30;;;;;;;-2.88;75.08;96637.23;1750705;82;21140;-80
2020/12/08 00:10:19;;;;;;;38.05;21.45;;;;;;;-2.85;74.91;96639.67;1821437;77;21074;-83
2020/12/08 00:12:49;;;;;;;29.70;17.12;;;;;;;-2.76;74.79;96650.05;1752223;80;21201;-83
2020/12/08 00:15:18;;;;;;;27.22;15.90;;;;;;;-2.73;74.48;96641.74;1819986;78;21605;-84
2020/12/08 00:17:48;;;;;;;26.20;14.55;;;;;;;-2.81;74.28;96646.38;1819418;78;21129;-82
2020/12/08 00:20:17;;;;;;;31.20;16.45;;;;;;;-2.85;74.59;96631.94;1749740;82;21499;-83
2020/12/08 00:22:46;;;;;;;29.10;15.78;;;;;;;-2.92;74.61;96638.27;1819298;78;21474;-83
2020/12/08 00:25:16;;;;;;;27.62;15.25;;;;;;;-2.99;74.70;96641.56;1819360;78;22381;-83
2020/12/08 00:27:45;;;;;;;26.33;15.15;;;;;;;-3.03;74.94;96637.88;1749482;82;21157;-85
2020/12/08 00:30:17;;;;;;;24.80;14.63;;;;;;;-3.08;75.26;96639.39;1819170;78;21046;-83
2020/12/08 00:32:46;;;;;;;31.40;16.48;;;;;;;-3.05;75.34;96635.38;1820474;78;21490;-85
2020/12/08 00:35:15;;;;;;;25.75;15.50;;;;;;;-3.02;75.38;96634.43;1819720;78;21192;-83
2020/12/08 00:37:44;;;;;;;30.12;16.60;;;;;;;-3.03;75.30;96639.17;1820561;78;21194;-83
2020/12/08 00:40:15;;;;;;;30.20;16.67;;;;;;;-3.10;75.41;96645.03;1749384;82;21125;-84
2020/12/08 00:42:44;;;;;;;29.82;16.73;;;;;;;-3.11;75.60;96647.23;1819556;78;21045;-83
2020/12/08 00:45:14;;;;;;;27.22;15.80;;;;;;;-3.15;75.63;96646.13;1749284;82;21053;-82
2020/12/08 00:47:44;;;;;;;29.92;16.23;;;;;;;-3.15;75.81;96637.95;1787457;78;21581;-82
2020/12/08 00:50:15;;;;;;;25.00;14.47;;;;;;;-3.11;75.93;96637.38;1698755;82;21352;-81
2020/12/08 00:52:44;;;;;;;27.00;16.50;;;;;;;-3.09;75.71;96638.14;1819567;78;21045;-82
2020/12/08 00:55:14;;;;;;;22.20;13.18;;;;;;;-3.08;75.69;96633.41;1749297;82;21137;-83
2020/12/08 00:57:46;;;;;;;32.42;16.77;;;;;;;-3.08;75.64;96620.52;1819776;78;21062;-82
2020/12/08 01:00:18;;;;;;;28.15;15.85;;;;;;;-3.14;75.68;96642.22;1749930;81;21094;-83
2020/12/08 01:02:48;;;;;;;29.70;15.20;;;;;;;-3.17;75.92;96633.77;1820175;78;21403;-83
2020/12/08 01:05:17;;;;;;;26.27;14.70;;;;;;;-3.19;76.05;96629.15;1750242;82;21185;-83
2020/12/08 01:07:49;;;;;;;31.27;17.10;;;;;;;-3.21;76.19;96625.33;1819961;78;21148;-85
2020/12/08 01:10:20;;;;;;;24.63;14.25;;;;;;;-3.19;76.41;96631.27;1749679;82;21581;-81
2020/12/08 01:12:48;;;;;;;27.05;14.20;;;;;;;-3.13;76.30;96627.15;1820180;78;21227;-82
2020/12/08 01:15:17;;;;;;;28.27;15.70;;;;;;;-3.08;76.06;96630.83;1820488;78;21189;-81
2020/12/08 01:17:47;;;;;;;24.87;14.50;;;;;;;-3.11;76.12;96621.47;1819835;78;21085;-84
2020/12/08 01:20:16;;;;;;;25.15;14.68;;;;;;;-3.15;76.02;96623.78;1750002;82;21065;-83
2020/12/08 01:22:46;;;;;;;25.77;14.45;;;;;;;-3.22;76.32;96625.78;1820163;78;21054;-83
2020/12/08 01:25:18;;;;;;;24.75;13.68;;;;;;;-3.17;76.51;96626.05;1745311;82;21069;-84
2020/12/08 01:27:48;;;;;;;25.50;14.90;;;;;;;-3.11;76.42;96618.89;1820042;78;21203;-84
2020/12/08 01:30:17;;;;;;;24.47;14.47;;;;;;;-3.07;76.33;96624.31;1819807;78;21081;-84
2020/12/08 01:32:48;;;;;;;25.85;13.78;;;;;;;-3.05;76.14;96625.53;1749956;82;21200;-83
2020/12/08 01:35:18;;;;;;;24.02;13.70;;;;;;;-3.02;75.95;96622.38;1819623;78;21176;-82
2020/12/08 01:37:49;;;;;;;25.35;14.20;;;;;;;-2.99;75.71;96620.11;1749998;81;21161;-83
2020/12/08 01:40:18;;;;;;;24.67;13.78;;;;;;;-3.01;75.88;96613.75;1819672;78;21422;-82
2020/12/08 01:42:47;;;;;;;23.85;14.23;;;;;;;-2.96;75.77;96622.58;1814544;78;21089;-81
2020/12/08 01:45:16;;;;;;;24.70;14.73;;;;;;;-2.99;75.64;96620.95;1819353;78;21113;-84
2020/12/08 01:47:46;;;;;;;25.40;15.18;;;;;;;-2.98;75.78;96629.05;1749624;82;21071;-82
2020/12/08 01:50:15;;;;;;;30.82;15.98;;;;;;;-2.91;75.84;96624.47;1819178;78;21486;-82
2020/12/08 01:52:43;;;;;;;22.75;14.23;;;;;;;-2.80;75.48;96630.45;1749331;82;21162;-83
2020/12/08 01:55:14;;;;;;;24.18;14.20;;;;;;;-2.75;75.41;96628.06;1819022;78;21568;-82
2020/12/08 01:57:45;;;;;;;25.00;13.25;;;;;;;-2.67;75.06;96614.00;1820171;78;20990;-82
2020/12/08 02:00:15;;;;;;;25.62;14.95;;;;;;;-2.64;74.74;96620.33;1752912;82;21090;-84
2020/12/08 02:02:44;;;;;;;26.77;14.47;;;;;;;-2.69;74.71;96626.97;1819866;78;21132;-84
2020/12/08 02:05:19;;;;;;;24.55;13.72;;;;;;;-2.70;74.85;96626.13;1748227;82;21594;-83
2020/12/08 02:07:49;;;;;;;23.35;12.88;;;;;;;-2.70;74.98;96627.42;1819211;78;21169;-84
2020/12/08 02:10:18;;;;;;;24.15;14.13;;;;;;;-2.65;74.87;96622.52;1749485;82;21224;-82
2020/12/08 02:12:47;;;;;;;23.62;14.47;;;;;;;-2.63;74.73;96622.83;1820906;78;21077;-82
2020/12/08 02:15:17;;;;;;;22.67;13.38;;;;;;;-2.66;74.56;96622.14;1755167;81;21531;-82
2020/12/08 02:17:46;;;;;;;22.15;13.18;;;;;;;-2.68;74.72;96613.17;1785968;80;22274;-83
2020/12/08 02:20:15;;;;;;;21.48;12.35;;;;;;;-2.66;74.82;96611.38;1785870;80;21061;-84
2020/12/08 02:22:44;;;;;;;23.85;13.88;;;;;;;-2.66;74.53;96617.83;1786045;80;21570;-85
2020/12/08 02:25:13;;;;;;;23.10;12.70;;;;;;;-2.72;74.80;96607.78;1785974;80;21157;-81
2020/12/08 02:27:45;;;;;;;22.58;13.55;;;;;;;-2.65;74.86;96598.03;1786083;80;21093;-82
2020/12/08 02:30:15;;;;;;;25.88;14.83;;;;;;;-2.65;74.61;96607.06;1786232;80;21348;-84
2020/12/08 02:32:45;;;;;;;23.05;13.90;;;;;;;-2.63;74.91;96609.94;1786020;80;21625;-83
2020/12/08 02:35:14;;;;;;;24.10;12.80;;;;;;;-2.54;74.64;96609.55;1786065;80;21065;-82
2020/12/08 02:37:43;;;;;;;21.70;12.95;;;;;;;-2.54;74.59;96603.55;1786208;80;21601;-82
2020/12/08 02:40:12;;;;;;;22.20;12.40;;;;;;;-2.51;74.47;96602.94;1786352;80;21141;-84
2020/12/08 02:42:44;;;;;;;21.40;13.05;;;;;;;-2.53;74.27;96600.06;1786075;80;21374;-82
2020/12/08 02:45:12;;;;;;;21.85;12.43;;;;;;;-2.51;74.32;96611.13;1785917;80;21045;-84
2020/12/08 02:47:42;;;;;;;21.77;12.85;;;;;;;-2.50;74.32;96622.66;1785982;80;21211;-85
2020/12/08 02:50:11;;;;;;;22.90;13.50;;;;;;;-2.45;74.25;96613.44;1786391;80;21113;-83
2020/12/08 02:52:40;;;;;;;21.05;13.55;;;;;;;-2.45;73.85;96605.24;1787006;80;21128;-84
2020/12/08 02:55:10;;;;;;;22.00;12.88;;;;;;;-2.50;73.82;96609.77;1786116;80;22077;-84
2020/12/08 02:57:40;;;;;;;22.48;12.80;;;;;;;-2.48;73.92;96607.97;1785543;80;21155;-83
2020/12/08 03:00:09;;;;;;;23.60;12.50;;;;;;;-2.47;73.84;96612.22;1785948;80;21590;-84
2020/12/08 03:02:38;;;;;;;19.67;12.07;;;;;;;-2.42;73.66;96602.54;1786062;80;21609;-85
2020/12/08 03:05:07;;;;;;;20.90;12.60;;;;;;;-2.40;73.43;96608.08;1786320;80;21494;-83
2020/12/08 03:07:38;;;;;;;22.30;12.98;;;;;;;-2.39;73.43;96602.01;1785817;80;21238;-83
2020/12/08 03:10:07;;;;;;;21.42;13.22;;;;;;;-2.38;73.40;96612.70;1758661;80;21093;-83
2020/12/08 03:12:37;;;;;;;22.35;13.85;;;;;;;-2.37;73.36;96613.08;1784435;80;21184;-83
2020/12/08 03:15:07;;;;;;;22.37;14.03;;;;;;;-2.40;73.20;96619.22;1772953;81;21495;-81
2020/12/08 03:17:41;;;;;;;20.75;11.80;;;;;;;-2.42;73.44;96615.89;1773137;80;21615;-84
2020/12/08 03:20:11;;;;;;;22.70;13.35;;;;;;;-2.38;73.65;96610.95;1773315;80;21199;-84
2020/12/08 03:22:41;;;;;;;21.93;13.38;;;;;;;-2.29;73.34;96611.84;1772729;81;21605;-84
2020/12/08 03:25:12;;;;;;;23.73;13.03;;;;;;;-2.23;73.28;96612.84;1773066;81;21181;-83
2020/12/08 03:27:41;;;;;;;21.73;13.28;;;;;;;-2.13;72.79;96620.14;1747182;81;21113;-83
2020/12/08 03:30:10;;;;;;;24.63;14.70;;;;;;;-2.10;72.68;96623.43;1773101;81;21593;-83
2020/12/08 03:32:39;;;;;;;20.10;12.50;;;;;;;-2.11;72.64;96617.06;1773091;81;21196;-83
2020/12/08 03:35:10;;;;;;;23.07;12.93;;;;;;;-2.12;72.53;96629.58;1772719;80;21137;-84
2020/12/08 03:37:39;;;;;;;25.43;12.88;;;;;;;-2.15;72.75;96635.25;1773053;81;21125;-83
2020/12/08 03:40:09;;;;;;;21.55;13.05;;;;;;;-2.18;72.69;96638.44;1773050;80;21158;-82
2020/12/08 03:42:38;;;;;;;24.95;14.63;;;;;;;-2.19;73.01;96632.91;1746997;81;21181;-83
2020/12/08 03:45:07;;;;;;;22.85;13.98;;;;;;;-2.18;73.08;96633.28;1773464;81;21198;-83
2020/12/08 03:47:41;;;;;;;22.48;14.33;;;;;;;-2.14;73.10;96634.79;1774313;81;21220;-84
2020/12/08 03:50:10;;;;;;;24.72;14.05;;;;;;;-2.08;73.09;96641.41;1774600;81;21158;-83
2020/12/08 03:52:40;;;;;;;22.35;14.07;;;;;;;-2.03;73.04;96636.42;1772873;80;21654;-84
2020/12/08 03:55:09;;;;;;;24.43;14.65;;;;;;;-2.00;72.90;96637.59;1772930;81;21090;-83
2020/12/08 03:57:38;;;;;;;24.30;14.43;;;;;;;-2.01;72.91;96635.92;1773245;81;21602;-82
2020/12/08 04:00:09;;;;;;;24.75;14.50;;;;;;;-1.97;72.78;96634.84;1772902;80;21182;-84
2020/12/08 04:02:44;;;;;;;23.83;14.87;;;;;;;-2.00;72.38;96640.17;1772585;81;21829;-82
2020/12/08 04:05:14;;;;;;;23.47;14.55;;;;;;;-2.08;72.50;96641.41;1773574;81;21094;-84
2020/12/08 04:07:43;;;;;;;26.00;15.35;;;;;;;-2.20;72.79;96638.94;1773143;81;21066;-84
2020/12/08 04:10:12;;;;;;;28.57;16.02;;;;;;;-2.30;73.06;96646.73;1773474;80;21350;-82
2020/12/08 04:12:41;;;;;;;28.12;16.25;;;;;;;-2.40;73.49;96639.85;1773115;80;21145;-82
2020/12/08 04:15:10;;;;;;;26.95;16.90;;;;;;;-2.45;73.70;96644.38;1756328;81;21122;-83
2020/12/08 04:17:40;;;;;;;29.25;17.48;;;;;;;-2.48;74.11;96638.91;1784006;80;21169;-84
2020/12/08 04:20:09;;;;;;;28.95;16.62;;;;;;;-2.39;74.05;96635.53;1783727;80;21157;-85
2020/12/08 04:22:37;;;;;;;27.65;15.83;;;;;;;-2.39;74.23;96636.81;1783798;80;22234;-81
2020/12/08 04:25:07;;;;;;;29.52;17.42;;;;;;;-2.36;74.11;96638.82;1783431;80;21105;-83
2020/12/08 04:27:36;;;;;;;31.15;17.40;;;;;;;-2.35;74.11;96648.68;1784062;80;21082;-83
2020/12/08 04:30:06;;;;;;;28.85;16.95;;;;;;;-2.31;74.08;96644.61;1783584;80;21573;-83
2020/12/08 04:32:37;;;;;;;30.23;18.17;;;;;;;-2.27;73.86;96646.13;1783108;80;21058;-84
2020/12/08 04:35:08;;;;;;;31.25;18.73;;;;;;;-2.25;74.08;96641.75;1783680;80;21200;-82
2020/12/08 04:37:37;;;;;;;27.70;16.02;;;;;;;-2.19;73.84;96638.89;1783893;80;21480;-82
2020/12/08 04:40:06;;;;;;;28.83;17.27;;;;;;;-2.24;73.62;96633.10;1783392;80;21065;-84
2020/12/08 04:42:45;;;;;;;29.65;18.77;;;;;;;-2.28;73.76;96647.48;1783343;80;21152;-84
2020/12/08 04:45:17;;;;;;;29.75;17.57;;;;;;;-2.26;74.04;96650.38;1780629;80;21089;-85
2020/12/08 04:47:45;;;;;;;29.05;17.12;;;;;;;-2.17;73.95;96649.13;1783609;80;21369;-83
2020/12/08 04:50:17;;;;;;;33.35;17.23;;;;;;;-2.10;73.70;96644.07;1783713;80;21061;-83
2020/12/08 04:52:49;;;;;;;27.98;16.80;;;;;;;-2.04;73.63;96644.24;1783998;80;21471;-83
2020/12/08 04:55:19;;;;;;;30.08;16.05;;;;;;;-1.93;73.42;96640.72;1783806;80;21193;-82
2020/12/08 04:57:47;;;;;;;30.70;17.30;;;;;;;-1.84;72.85;96645.43;1785665;80;21033;-83
2020/12/08 05:00:16;;;;;;;28.65;16.80;;;;;;;-1.84;72.52;96653.63;1786048;80;21259;-83
2020/12/08 05:02:51;;;;;;;26.52;16.55;;;;;;;-1.90;72.61;96656.04;1785270;80;21057;-84
2020/12/08 05:05:21;;;;;;;30.25;16.20;;;;;;;-1.92;72.49;96657.41;1784535;80;21113;-84
2020/12/08 05:07:50;;;;;;;29.02;15.45;;;;;;;-1.92;72.54;96657.87;1784438;80;21130;-83
2020/12/08 05:10:28;;;;;;;32.40;18.35;;;;;;;-1.97;72.45;96651.62;1784729;80;21630;-84
2020/12/08 05:12:57;;;;;;;30.90;16.40;;;;;;;-2.03;72.46;96650.61;1783762;80;21368;-85
2020/12/08 05:15:27;;;;;;;30.68;16.30;;;;;;;-2.16;72.67;96646.94;1781413;80;21081;-84
2020/12/08 05:18:11;;;;;;;29.27;16.25;;;;;;;-2.20;73.10;96648.80;1818424;78;21235;-84
2020/12/08 05:20:39;;;;;;;27.87;16.20;;;;;;;-2.23;73.23;96640.38;1749859;82;21141;-83
2020/12/08 05:23:12;;;;;;;32.65;18.62;;;;;;;-2.26;73.38;96640.51;1820347;78;21205;-84
2020/12/08 05:25:44;;;;;;;38.00;20.92;;;;;;;-2.33;73.52;96645.11;1819677;78;21364;-83
2020/12/08 05:28:19;;;;;;;41.08;21.50;;;;;;;-2.29;73.74;96644.53;1819510;78;21208;-83
2020/12/08 05:30:49;;;;;;;32.15;16.07;;;;;;;-2.29;73.58;96642.79;1749945;82;21207;-85
2020/12/08 05:33:18;;;;;;;79.17;34.98;;;;;;;-2.32;73.84;96646.78;1821914;78;21053;-85
2020/12/08 05:35:47;;;;;;;99.13;53.15;;;;;;;-2.29;73.89;96653.11;1822932;78;21101;-85
2020/12/08 05:38:16;;;;;;;90.45;44.65;;;;;;;-2.27;74.28;96649.16;1820962;78;21190;-85
2020/12/08 05:40:45;;;;;;;53.33;25.50;;;;;;;-2.29;74.42;96655.69;1751877;82;21046;-83
2020/12/08 05:43:15;;;;;;;77.58;33.20;;;;;;;-2.26;74.41;96648.25;1822041;78;21085;-83
2020/12/08 05:45:44;;;;;;;40.78;20.27;;;;;;;-2.17;74.32;96646.55;1821652;78;21038;-83
2020/12/08 05:48:17;;;;;;;85.55;34.55;;;;;;;-2.05;74.10;96646.45;1721596;82;21212;-83
2020/12/08 05:50:45;;;;;;;145.65;51.92;;;;;;;-1.99;73.72;96648.74;1820086;78;21568;-86
2020/12/08 05:53:19;;;;;;;41.18;20.20;;;;;;;-1.98;73.35;96651.70;1820074;78;21077;-84
2020/12/08 05:55:47;;;;;;;229.82;76.75;;;;;;;-2.01;73.37;96657.85;1820647;78;21049;-85
2020/12/08 05:58:16;;;;;;;72.47;28.80;;;;;;;-2.03;74.01;96660.94;1820074;78;21185;-87
2020/12/08 06:00:45;;;;;;;60.75;27.22;;;;;;;-2.03;73.67;96657.52;1819914;78;21519;-85
2020/12/08 06:03:18;;;;;;;86.30;34.58;;;;;;;-2.06;73.73;96665.42;1820211;78;21490;-84
2020/12/08 06:05:47;;;;;;;40.70;21.33;;;;;;;-2.05;74.24;96667.92;1819670;78;21126;-85
2020/12/08 06:08:21;;;;;;;44.45;22.05;;;;;;;-2.03;74.14;96665.27;1821460;78;21084;-84
2020/12/08 06:10:54;;;;;;;42.93;22.02;;;;;;;-2.03;74.10;96660.94;1820109;78;21146;-85
2020/12/08 06:13:28;;;;;;;91.12;38.08;;;;;;;-2.05;74.18;96671.80;1820093;78;21066;-84
2020/12/08 06:16:15;;;;;;;72.47;28.05;;;;;;;-2.02;74.70;96665.64;1819735;78;21630;-89
2020/12/08 06:18:54;;;;;;;137.70;55.77;;;;;;;-1.89;74.27;96666.77;1832457;76;27795;-85
2020/12/08 06:21:28;;;;;;;59.93;27.37;;;;;;;-1.73;73.92;96674.16;1859895;77;21049;-86
2020/12/08 06:23:59;;;;;;;75.87;33.30;;;;;;;-1.62;73.49;96670.62;1788988;80;21374;-85
2020/12/08 06:26:40;;;;;;;53.70;26.80;;;;;;;-1.51;73.07;96680.91;1791606;80;21159;-87
2020/12/08 06:29:12;;;;;;;64.85;27.55;;;;;;;-1.44;72.98;96687.44;1819620;79;21567;-85
2020/12/08 06:31:45;;;;;;;42.35;22.65;;;;;;;-1.30;72.73;96685.51;1788391;79;21125;-85
2020/12/08 06:34:31;;;;;;;72.85;31.85;;;;;;;-1.24;72.28;96684.75;1819997;79;21090;-87
2020/12/08 06:37:09;;;;;;;49.03;24.15;;;;;;;-1.27;71.79;96690.05;1820075;78;21376;-85
2020/12/08 06:39:38;;;;;;;25.30;15.25;;;;;;;-1.29;71.90;96689.30;1820490;77;21131;-89
2020/12/08 06:42:15;;;;;;;57.85;28.80;;;;;;;-1.39;72.00;96693.23;1819336;79;21152;-87
2020/12/08 06:44:43;;;;;;;34.50;18.95;;;;;;;-1.47;72.45;96694.06;1805126;79;21092;-87
2020/12/08 06:47:14;;;;;;;95.15;44.20;;;;;;;-1.55;72.53;96699.56;1775387;79;20999;-86
2020/12/08 06:49:43;;;;;;;42.93;22.85;;;;;;;-1.51;72.72;96703.69;1775234;81;21194;-87
2020/12/08 06:52:12;;;;;;;33.98;21.10;;;;;;;-1.50;72.66;96695.02;1783355;78;21070;-86
2020/12/08 06:54:41;;;;;;;41.15;23.70;;;;;;;-1.61;72.80;96701.14;1783933;80;21384;-85
2020/12/08 06:57:09;;;;;;;59.03;32.40;;;;;;;-1.65;73.15;96701.77;1743475;78;21113;-87
2020/12/08 06:59:39;;;;;;;35.15;21.77;;;;;;;-1.63;73.41;96702.97;1738865;82;21156;-86
2020/12/08 07:02:10;;;;;;;38.70;22.95;;;;;;;-1.58;73.15;96706.18;1712243;81;21495;-86
2020/12/08 07:04:40;;;;;;;45.48;23.65;;;;;;;-1.57;73.16;96710.43;1780660;79;21200;-87
2020/12/08 07:07:10;;;;;;;38.28;21.12;;;;;;;-1.63;73.16;96701.23;1782190;80;21177;-87
2020/12/08 07:09:38;;;;;;;41.83;25.62;;;;;;;-1.65;73.14;96699.18;1728236;78;21157;-85
2020/12/08 07:12:07;;;;;;;31.73;18.27;;;;;;;-1.70;73.29;96705.47;1783269;80;21105;-86
2020/12/08 07:14:36;;;;;;;53.68;29.07;;;;;;;-1.80;73.80;96711.50;1781457;80;21423;-86
2020/12/08 07:17:07;;;;;;;44.80;26.23;;;;;;;-1.84;74.01;96718.98;1780009;80;21069;-87
2020/12/08 07:19:38;;;;;;;35.85;20.10;;;;;;;-1.76;74.76;96722.53;1768248;81;21177;-89
2020/12/08 07:22:08;;;;;;;35.55;21.57;;;;;;;-1.65;74.25;96721.58;1748291;79;21075;-86
2020/12/08 07:24:43;;;;;;;36.93;22.30;;;;;;;-1.62;74.11;96717.09;1769977;79;21158;-85
2020/12/08 07:27:12;;;;;;;31.65;19.15;;;;;;;-1.56;74.38;96719.02;1767433;81;22254;-84
2020/12/08 07:29:41;;;;;;;38.33;21.17;;;;;;;-1.57;73.93;96718.17;1767445;80;21153;-86
2020/12/08 07:32:12;;;;;;;30.90;19.20;;;;;;;-1.60;73.90;96719.62;1767079;81;21090;-86
2020/12/08 07:34:49;;;;;;;31.57;16.85;;;;;;;-1.56;73.97;96719.02;1767620;80;21571;-87
2020/12/08 07:37:29;;;;;;;47.85;25.35;;;;;;;-1.59;73.57;96706.27;1767348;80;21106;-89
2020/12/08 07:40:11;;;;;;;31.40;16.12;;;;;;;-1.70;73.90;96710.17;1853920;77;28027;-88
2020/12/08 07:42:52;;;;;;;29.85;16.45;;;;;;;-1.75;74.12;96717.29;1793289;78;21211;-88
2020/12/08 07:45:20;;;;;;;38.48;20.32;;;;;;;-1.78;74.17;96721.73;1795804;78;21212;-87
2020/12/08 07:47:54;;;;;;;40.52;20.85;;;;;;;-1.74;74.36;96721.54;1754070;81;21078;-87
2020/12/08 07:50:27;;;;;;;30.27;18.55;;;;;;;-1.66;74.50;96710.42;1788320;80;21157;-89
2020/12/08 07:53:08;;;;;;;39.58;22.50;;;;;;;-1.59;74.10;96708.39;1753508;81;21177;-89
2020/12/08 07:55:42;;;;;;;35.08;21.05;;;;;;;-1.54;74.65;96715.89;1788503;80;21600;-91
2020/12/08 07:58:17;;;;;;;33.18;18.98;;;;;;;-1.45;74.06;96716.77;1789419;80;21486;-88
2020/12/08 08:00:45;;;;;;;32.95;19.32;;;;;;;-1.39;73.66;96717.77;1787947;80;21533;-86
2020/12/08 08:03:15;;;;;;;43.83;22.80;;;;;;;-1.37;73.60;96718.52;1788039;80;21180;-86
2020/12/08 08:05:56;;;;;;;36.00;19.62;;;;;;;-1.40;74.02;96721.27;1788232;80;21258;-87
2020/12/08 08:08:25;;;;;;;35.75;21.73;;;;;;;-1.36;74.07;96721.51;1753598;81;21495;-90
2020/12/08 08:10:54;;;;;;;39.00;19.73;;;;;;;-1.37;73.95;96723.22;1735823;81;21271;-88
2020/12/08 08:13:24;;;;;;;42.98;23.45;;;;;;;-1.41;73.61;96727.34;1819288;78;21546;-88
2020/12/08 08:15:53;;;;;;;37.28;21.05;;;;;;;-1.50;73.48;96729.05;1751446;80;21158;-85
2020/12/08 08:18:22;;;;;;;40.60;22.40;;;;;;;-1.54;73.96;96728.80;1820609;78;21129;-88
2020/12/08 08:21:00;;;;;;;31.85;17.62;;;;;;;-1.54;74.30;96721.05;1820409;78;21128;-87
2020/12/08 08:23:30;;;;;;;32.33;19.87;;;;;;;-1.49;73.85;96729.43;1820104;78;21372;-88
2020/12/08 08:26:14;;;;;;;36.17;19.25;;;;;;;-1.49;73.86;96726.84;1781549;80;21042;-88
2020/12/08 08:28:43;;;;;;;34.85;19.55;;;;;;;-1.52;74.03;96731.72;1820446;78;21121;-88
2020/12/08 08:31:12;;;;;;;37.50;21.42;;;;;;;-1.48;74.44;96730.67;1781509;80;21141;-89
2020/12/08 08:33:41;;;;;;;35.30;19.57;;;;;;;-1.47;74.20;96731.05;1820331;78;21633;-88
2020/12/08 08:36:09;;;;;;;31.73;18.52;;;;;;;-1.49;74.02;96730.72;1820173;78;21298;-88
2020/12/08 08:38:38;;;;;;;33.73;19.92;;;;;;;-1.51;73.97;96720.93;1780991;80;21164;-88
2020/12/08 08:41:12;;;;;;;31.85;17.65;;;;;;;-1.49;74.32;96720.39;1817042;78;21065;-88
2020/12/08 08:43:41;;;;;;;37.48;20.85;;;;;;;-1.46;74.04;96719.80;1781297;80;21601;-88
2020/12/08 08:46:12;;;;;;;38.17;20.65;;;;;;;-1.41;73.93;96723.01;1820504;78;21129;-89
2020/12/08 08:48:41;;;;;;;33.55;19.80;;;;;;;-1.40;73.55;96720.80;1781571;80;22189;-88
2020/12/08 08:51:11;;;;;;;32.67;18.35;;;;;;;-1.42;73.34;96714.05;1820366;78;21502;-87
2020/12/08 08:53:40;;;;;;;37.53;20.40;;;;;;;-1.46;73.59;96711.22;1728473;81;21634;-88
2020/12/08 08:56:09;;;;;;;37.67;19.73;;;;;;;-1.43;73.66;96715.77;1787571;80;21098;-88
2020/12/08 08:58:38;;;;;;;33.95;19.30;;;;;;;-1.30;73.56;96714.76;1787599;80;21046;-88
2020/12/08 09:01:11;;;;;;;38.80;21.27;;;;;;;-1.17;73.20;96715.00;1787700;80;21448;-90
2020/12/08 09:03:45;;;;;;;40.63;21.12;;;;;;;-1.09;72.63;96707.23;1787542;80;21125;-89
2020/12/08 09:06:16;;;;;;;40.88;21.77;;;;;;;-1.09;72.28;96709.82;1787859;80;21563;-87
2020/12/08 09:08:59;;;;;;;;;;;;;;;;;;;;;
2020/12/08 09:11:33;;;;;;;46.90;28.65;;;;;;;-1.05;72.02;96703.23;1825619;77;27969;-88
2020/12/08 09:14:02;;;;;;;42.35;24.75;;;;;;;-1.06;72.30;96708.86;1789217;79;21050;-87
2020/12/08 09:16:38;;;;;;;37.23;22.58;;;;;;;-1.03;72.27;96705.27;1786306;80;21364;-88
2020/12/08 09:19:08;;;;;;;38.00;22.62;;;;;;;-0.96;72.34;96697.12;1786635;80;21105;-87
2020/12/08 09:21:38;;;;;;;40.43;23.73;;;;;;;-0.94;71.82;96700.95;1786707;80;21141;-87
2020/12/08 09:24:07;;;;;;;43.40;24.50;;;;;;;-1.02;72.09;96700.02;1786443;80;21164;-86
2020/12/08 09:26:41;;;;;;;39.92;22.98;;;;;;;-1.06;72.00;96698.52;1786703;80;21132;-86
2020/12/08 09:29:41;;;;;;;;;;;;;;;;;;;;;
2020/12/08 09:42:33;;;;;;;41.60;22.65;;;;;;;-0.94;72.07;96681.11;1885608;75;28221;-89
2020/12/08 09:45:01;;;;;;;45.67;23.83;;;;;;;-0.90;71.96;96686.48;1860868;77;21490;-87
2020/12/08 09:47:31;;;;;;;36.83;20.50;;;;;;;-0.75;71.58;96684.06;1861133;77;21422;-88
2020/12/08 09:50:00;;;;;;;34.40;18.98;;;;;;;-0.70;71.04;96675.63;1860532;77;21080;-86
2020/12/08 09:52:30;;;;;;;38.10;21.95;;;;;;;-0.73;70.81;96674.01;1860930;77;21124;-88
2020/12/08 09:54:59;;;;;;;44.63;24.37;;;;;;;-0.76;70.95;96679.81;1861126;77;21089;-88
2020/12/08 09:57:35;;;;;;;47.98;25.65;;;;;;;-0.75;70.89;96678.43;1861692;77;21049;-87
2020/12/08 10:00:06;;;;;;;46.95;27.20;;;;;;;-0.73;71.28;96674.47;1861440;76;21465;-88
2020/12/08 10:02:35;;;;;;;63.15;33.20;;;;;;;-0.70;70.84;96677.75;1862490;75;21383;-89
2020/12/08 10:05:04;;;;;;;64.22;33.50;;;;;;;-0.67;70.80;96674.98;1861205;77;21136;-86
2020/12/08 10:07:37;;;;;;;52.05;27.67;;;;;;;-0.67;70.08;96680.16;1860656;77;21024;-86
2020/12/08 10:10:06;;;;;;;39.73;22.52;;;;;;;-0.76;70.32;96678.52;1861009;77;21152;-86
2020/12/08 10:12:35;;;;;;;51.98;25.90;;;;;;;-0.81;70.15;96674.41;1859932;77;21213;-87
2020/12/08 10:15:18;;;;;;;89.07;40.85;;;;;;;-0.83;70.75;96672.36;1853258;77;28038;-86
2020/12/08 10:17:49;;;;;;;152.65;62.73;;;;;;;-0.86;71.43;96676.84;1820811;78;21949;-87
2020/12/08 10:20:20;;;;;;;51.83;26.57;;;;;;;-0.81;71.11;96676.16;1820599;78;21236;-88
2020/12/08 10:22:53;;;;;;;84.40;36.73;;;;;;;-0.74;70.93;96668.92;1750875;82;21694;-87
2020/12/08 10:25:24;;;;;;;97.82;43.73;;;;;;;-0.67;70.68;96672.40;1820676;78;21081;-88
2020/12/08 10:27:53;;;;;;;77.37;34.15;;;;;;;-0.58;70.62;96669.36;1820691;78;21054;-87
2020/12/08 10:30:23;;;;;;;114.08;48.70;;;;;;;-0.47;70.14;96679.16;1751244;81;21014;-89
2020/12/08 10:32:52;;;;;;;54.73;25.95;;;;;;;-0.44;70.20;96678.15;1820956;78;21518;-87
2020/12/08 10:35:21;;;;;;;61.08;30.20;;;;;;;-0.44;69.66;96675.10;1751389;82;21077;-86
2020/12/08 10:37:50;;;;;;;48.78;26.80;;;;;;;-0.52;69.86;96677.27;1822030;78;21133;-87
2020/12/08 10:40:19;;;;;;;44.27;24.30;;;;;;;-0.49;69.93;96669.79;1751504;81;21200;-88
2020/12/08 10:42:47;;;;;;;50.58;25.52;;;;;;;-0.49;69.60;96676.25;1820612;78;21105;-87
2020/12/08 10:45:16;;;;;;;43.68;20.55;;;;;;;-0.59;69.39;96669.45;1820525;78;21352;-85
2020/12/08 10:47:45;;;;;;;57.43;27.10;;;;;;;-0.64;69.82;96676.60;1750259;82;21093;-89
2020/12/08 10:50:15;;;;;;;43.87;24.87;;;;;;;-0.64;69.62;96676.60;1820450;78;21041;-88
2020/12/08 10:52:46;;;;;;;65.17;34.95;;;;;;;-0.69;69.78;96677.28;1820803;78;21223;-88
2020/12/08 10:55:17;;;;;;;47.75;24.23;;;;;;;-0.65;70.13;96679.64;1751352;82;21145;-89
2020/12/08 10:57:46;;;;;;;41.75;22.73;;;;;;;-0.57;70.12;96680.08;1820648;78;21368;-89
2020/12/08 11:00:16;;;;;;;57.85;29.85;;;;;;;-0.51;69.82;96680.68;1822264;78;21039;-88
2020/12/08 11:02:45;;;;;;;49.88;29.35;;;;;;;-0.49;69.60;96686.59;1765690;79;21105;-85
2020/12/08 11:05:15;;;;;;;42.03;23.75;;;;;;;-0.54;69.56;96682.95;1797274;78;21105;-86
2020/12/08 11:07:45;;;;;;;39.27;22.35;;;;;;;-0.64;69.56;96683.06;1787999;80;21078;-86
2020/12/08 11:10:15;;;;;;;62.38;36.25;;;;;;;-0.69;69.95;96685.05;1788584;80;21259;-85
2020/12/08 11:12:44;;;;;;;49.20;29.30;;;;;;;-0.74;70.24;96688.31;1789119;78;21134;-86
2020/12/08 11:15:17;;;;;;;50.48;29.40;;;;;;;-0.77;70.37;96686.73;1788194;78;21079;-86
2020/12/08 11:17:50;;;;;;;47.05;25.68;;;;;;;-0.79;70.42;96682.08;1787392;78;21169;-84
2020/12/08 11:20:19;;;;;;;35.85;21.05;;;;;;;-0.76;70.40;96686.27;1787522;80;21230;-84
2020/12/08 11:22:49;;;;;;;37.63;22.70;;;;;;;-0.71;70.60;96686.84;1789199;78;21479;-83
2020/12/08 11:25:18;;;;;;;35.70;21.23;;;;;;;-0.65;70.68;96682.23;1787781;80;21144;-84
2020/12/08 11:27:47;;;;;;;38.42;22.48;;;;;;;-0.63;70.46;96687.31;1720100;83;21236;-87
2020/12/08 11:30:17;;;;;;;33.40;20.25;;;;;;;-0.57;70.94;96686.55;1751336;80;21168;-86
2020/12/08 11:32:46;;;;;;;35.13;21.48;;;;;;;-0.44;70.54;96678.98;1720357;83;21141;-85
2020/12/08 11:35:15;;;;;;;42.30;19.77;;;;;;;-0.43;70.00;96679.36;1787627;80;21133;-84
2020/12/08 11:37:45;;;;;;;35.30;20.50;;;;;;;-0.44;69.93;96681.56;1795448;78;21077;-88
2020/12/08 11:40:16;;;;;;;35.03;20.40;;;;;;;-0.42;70.00;96687.95;1805987;78;21069;-86
2020/12/08 11:42:47;;;;;;;29.42;18.05;;;;;;;-0.42;70.28;96681.02;1750649;82;21117;-84
2020/12/08 11:45:24;;;;;;;35.73;19.15;;;;;;;-0.44;69.90;96682.86;1820423;78;21053;-84